Time;durP1;ratioP1;P1;durP2;ratioP2;P2;SDS_P1;SDS_P2;PMS_P1;PMS_P2;Temp;Humidity;BMP_temperature;BMP_pressure;BME280_temperature;BME280_humidity;BME280_pressure;Samples;Min_cycle;Max_cycle;Signal;HPM_P1;HPM_P2
2024/04/22 00:02:07;;;;;;;7.70;4.57;;;;;;;3.23;96.75;102276.84;5435032;26;20011;-71
2024/04/22 00:04:34;;;;;;;6.32;3.92;;;;;;;3.21;97.48;102280.38;5429986;26;20021;-72
2024/04/22 00:07:00;;;;;;;8.00;4.00;;;;;;;3.18;97.58;102277.97;5432690;26;20095;-71
2024/04/22 00:09:26;;;;;;;9.73;4.63;;;;;;;3.13;98.18;102280.75;5401858;26;20015;-73
2024/04/22 00:11:52;;;;;;;7.38;4.68;;;;;;;3.04;98.63;102276.88;5400328;26;19999;-72
2024/04/22 00:14:20;;;;;;;6.25;3.97;;;;;;;3.02;99.34;102281.25;5401157;26;22463;-71
2024/04/22 00:16:46;;;;;;;7.65;4.32;;;;;;;3.00;99.67;102272.78;5399024;26;20500;-71
2024/04/22 00:19:12;;;;;;;9.35;4.53;;;;;;;3.00;100.00;102275.34;5428627;26;19992;-71
2024/04/22 00:21:38;;;;;;;5.75;3.97;;;;;;;3.01;100.00;102269.31;5425804;26;20022;-72
2024/04/22 00:24:05;;;;;;;7.30;4.63;;;;;;;3.01;100.00;102266.75;5431705;26;20034;-71
2024/04/22 00:26:32;;;;;;;6.53;3.97;;;;;;;2.98;100.00;102264.34;5434650;26;19999;-72
2024/04/22 00:28:58;;;;;;;8.13;4.63;;;;;;;2.96;100.00;102262.72;5430451;26;20014;-72
2024/04/22 00:31:24;;;;;;;8.70;4.57;;;;;;;2.95;100.00;102259.34;5390305;26;20002;-71
2024/04/22 00:33:51;;;;;;;6.60;4.25;;;;;;;2.96;100.00;102260.16;5428086;26;20364;-72
2024/04/22 00:36:17;;;;;;;10.15;4.50;;;;;;;2.95;100.00;102263.66;5402018;26;20552;-71
2024/04/22 00:38:45;;;;;;;8.25;5.00;;;;;;;2.93;100.00;102261.16;5404138;26;20021;-73
2024/04/22 00:41:11;;;;;;;6.93;4.13;;;;;;;2.93;100.00;102259.41;5430288;26;20002;-71
2024/04/22 00:43:37;;;;;;;11.85;4.57;;;;;;;2.93;100.00;102253.47;5401653;26;20006;-72
2024/04/22 00:46:04;;;;;;;8.88;4.38;;;;;;;2.91;100.00;102263.78;5440403;26;21366;-72
2024/04/22 00:48:30;;;;;;;7.30;4.65;;;;;;;2.89;100.00;102257.91;5434117;26;20407;-72
2024/04/22 00:50:58;;;;;;;6.75;4.05;;;;;;;2.89;100.00;102262.19;5433156;26;20007;-71
2024/04/22 00:53:25;;;;;;;8.85;4.85;;;;;;;2.86;100.00;102258.06;5435116;26;20010;-71
2024/04/22 00:55:53;;;;;;;6.88;4.63;;;;;;;2.84;100.00;102259.84;5432838;26;21108;-71
2024/04/22 00:58:20;;;;;;;10.30;4.35;;;;;;;2.96;100.00;102263.59;5400475;26;20032;-71
2024/04/22 01:00:47;;;;;;;8.05;4.85;;;;;;;2.85;100.00;102266.63;5400656;26;20069;-71
2024/04/22 01:03:15;;;;;;;10.30;5.60;;;;;;;2.77;100.00;102262.75;5438497;26;20011;-70
2024/04/22 01:05:42;;;;;;;9.25;4.88;;;;;;;2.69;100.00;102251.13;5435970;26;20022;-71
2024/04/22 01:08:08;;;;;;;7.68;4.78;;;;;;;2.66;100.00;102251.25;5406465;26;20338;-71
2024/04/22 01:10:34;;;;;;;9.10;5.22;;;;;;;2.61;100.00;102260.06;5436328;26;20039;-71
2024/04/22 01:13:01;;;;;;;8.40;5.32;;;;;;;2.61;100.00;102262.63;5441859;26;19999;-71
2024/04/22 01:15:27;;;;;;;10.80;5.85;;;;;;;2.67;100.00;102260.59;5405154;26;20012;-71
2024/04/22 01:17:52;;;;;;;12.50;6.07;;;;;;;2.62;100.00;102254.00;5406613;26;20350;-71
2024/04/22 01:20:18;;;;;;;11.05;5.78;;;;;;;2.59;100.00;102251.63;5435765;26;20010;-71
2024/04/22 01:22:45;;;;;;;12.75;5.82;;;;;;;2.57;100.00;102251.69;5403186;26;20458;-71
2024/04/22 01:25:11;;;;;;;9.25;5.03;;;;;;;2.56;100.00;102247.44;5430005;26;20112;-72
2024/04/22 01:27:37;;;;;;;10.35;5.35;;;;;;;2.58;100.00;102247.38;5436691;26;20007;-72
2024/04/22 01:30:06;;;;;;;8.38;5.13;;;;;;;2.56;100.00;102246.63;5404616;26;20003;-71
2024/04/22 01:32:32;;;;;;;11.13;5.72;;;;;;;2.56;100.00;102239.75;5433042;26;20564;-71
2024/04/22 01:35:00;;;;;;;11.68;5.97;;;;;;;2.54;100.00;102233.88;5436832;26;20004;-71
2024/04/22 01:37:27;;;;;;;9.82;5.15;;;;;;;2.57;100.00;102238.03;5402457;26;20083;-71
2024/04/22 01:39:53;;;;;;;10.32;5.93;;;;;;;2.57;100.00;102235.50;5407766;26;20512;-71
2024/04/22 01:42:19;;;;;;;11.23;5.93;;;;;;;2.57;100.00;102231.19;5407028;26;21709;-71
2024/04/22 01:44:45;;;;;;;8.40;5.57;;;;;;;2.58;100.00;102237.97;5375218;26;20010;-71
2024/04/22 01:47:11;;;;;;;11.60;6.55;;;;;;;2.61;100.00;102232.72;5433945;26;20014;-71
2024/04/22 01:49:37;;;;;;;9.52;5.30;;;;;;;2.59;100.00;102226.81;5432390;26;20465;-70
2024/04/22 01:52:03;;;;;;;12.02;6.32;;;;;;;2.62;100.00;102228.41;5399678;26;20338;-71
2024/04/22 01:54:29;;;;;;;10.48;6.20;;;;;;;2.58;100.00;102227.75;5436753;26;20010;-71
2024/04/22 01:56:55;;;;;;;10.95;6.15;;;;;;;2.59;100.00;102228.56;5400494;26;20007;-73
2024/04/22 01:59:22;;;;;;;8.95;5.93;;;;;;;2.62;100.00;102228.41;5408279;26;20015;-70
2024/04/22 02:01:48;;;;;;;10.75;6.18;;;;;;;2.56;100.00;102218.44;5403441;26;20014;-71
2024/04/22 02:04:15;;;;;;;8.40;5.45;;;;;;;2.60;100.00;102227.66;5440115;26;20022;-73
2024/04/22 02:06:41;;;;;;;12.85;6.50;;;;;;;2.56;100.00;102223.56;5436832;26;20027;-71
2024/04/22 02:09:07;;;;;;;9.68;5.93;;;;;;;2.52;100.00;102223.72;5438233;26;20595;-71
2024/04/22 02:11:33;;;;;;;10.00;5.85;;;;;;;2.50;100.00;102225.50;5429085;26;20684;-71
2024/04/22 02:13:59;;;;;;;11.18;5.45;;;;;;;2.52;100.00;102228.84;5437884;26;20334;-71
2024/04/22 02:16:25;;;;;;;10.90;6.32;;;;;;;2.54;100.00;102226.19;5430342;26;20016;-71
2024/04/22 02:18:55;;;;;;;10.93;6.53;;;;;;;2.55;100.00;102227.88;5433658;26;20087;-71
2024/04/22 02:21:22;;;;;;;10.57;5.93;;;;;;;2.50;100.00;102228.06;5431967;26;20738;-71
2024/04/22 02:23:48;;;;;;;11.65;6.53;;;;;;;2.56;100.00;102228.69;5443302;26;20039;-72
2024/04/22 02:26:14;;;;;;;11.70;6.63;;;;;;;2.56;100.00;102226.13;5439686;26;20578;-71
2024/04/22 02:28:40;;;;;;;12.02;6.20;;;;;;;2.47;100.00;102223.09;5437347;26;20010;-71
2024/04/22 02:31:06;;;;;;;10.88;6.28;;;;;;;2.46;100.00;102218.84;5442356;26;20007;-71
2024/04/22 02:33:32;;;;;;;13.88;6.93;;;;;;;2.45;100.00;102224.91;5436411;26;20585;-71
2024/04/22 02:35:58;;;;;;;11.85;6.28;;;;;;;2.44;100.00;102228.34;5432577;26;20018;-71
2024/04/22 02:38:24;;;;;;;8.90;6.05;;;;;;;2.40;100.00;102231.94;5439122;26;20010;-71
2024/04/22 02:40:50;;;;;;;11.05;6.40;;;;;;;2.36;100.00;102225.28;5435350;26;20647;-71
2024/04/22 02:43:16;;;;;;;11.15;6.45;;;;;;;2.35;100.00;102228.75;5435753;26;20008;-71
2024/04/22 02:45:42;;;;;;;11.65;6.15;;;;;;;2.33;100.00;102230.53;5437460;26;20009;-71
2024/04/22 02:48:09;;;;;;;9.75;5.75;;;;;;;2.31;100.00;102224.66;5440325;26;20682;-71
2024/04/22 02:50:34;;;;;;;12.98;6.57;;;;;;;2.30;100.00;102223.84;5403286;26;20001;-70
2024/04/22 02:53:00;;;;;;;13.43;6.82;;;;;;;2.29;100.00;102218.78;5439771;26;20004;-71
2024/04/22 02:55:29;;;;;;;10.93;6.03;;;;;;;2.25;100.00;102215.53;5405802;26;20010;-71
2024/04/22 02:57:58;;;;;;;10.07;6.20;;;;;;;2.24;100.00;102218.16;5438312;26;20046;-71
2024/04/22 03:00:25;;;;;;;10.50;6.40;;;;;;;2.23;100.00;102217.31;5436767;26;20003;-71
2024/04/22 03:02:52;;;;;;;13.43;6.57;;;;;;;2.22;100.00;102213.09;5435562;26;20022;-73
2024/04/22 03:05:18;;;;;;;13.00;7.28;;;;;;;2.19;100.00;102213.25;5434357;26;20531;-71
2024/04/22 03:07:44;;;;;;;14.07;6.90;;;;;;;2.17;100.00;102217.59;5438548;26;20006;-71
2024/04/22 03:10:10;;;;;;;10.77;6.45;;;;;;;2.15;100.00;102214.28;5429569;26;20374;-71
2024/04/22 03:12:37;;;;;;;13.35;7.20;;;;;;;2.11;100.00;102205.91;5441568;26;19999;-71
2024/04/22 03:15:03;;;;;;;12.00;6.93;;;;;;;2.10;100.00;102211.91;5440110;26;20035;-71
2024/04/22 03:17:29;;;;;;;10.90;6.70;;;;;;;2.13;100.00;102206.66;5443004;26;20003;-71
2024/04/22 03:19:55;;;;;;;11.00;6.90;;;;;;;2.09;100.00;102210.25;5441300;26;20010;-71
2024/04/22 03:22:21;;;;;;;12.10;7.25;;;;;;;2.11;100.00;102212.72;5407039;26;20063;-71
2024/04/22 03:24:47;;;;;;;15.45;7.68;;;;;;;2.14;100.00;102202.34;5443246;26;20002;-71
2024/04/22 03:27:13;;;;;;;14.13;8.00;;;;;;;2.07;100.00;102201.81;5411330;26;20003;-70
2024/04/22 03:29:39;;;;;;;13.13;7.32;;;;;;;2.06;100.00;102204.44;5441497;26;20007;-71
2024/04/22 03:32:06;;;;;;;12.18;7.13;;;;;;;2.03;100.00;102199.44;5406771;26;20080;-71
2024/04/22 03:34:32;;;;;;;15.95;7.43;;;;;;;1.99;100.00;102193.63;5406833;26;20087;-71
2024/04/22 03:36:58;;;;;;;13.45;7.55;;;;;;;1.98;100.00;102191.13;5439041;26;20003;-71
2024/04/22 03:39:24;;;;;;;13.50;7.18;;;;;;;1.96;100.00;102198.88;5443753;26;20019;-71
2024/04/22 03:41:50;;;;;;;13.90;7.43;;;;;;;1.95;100.00;102195.47;5442172;26;20002;-71
2024/04/22 03:44:16;;;;;;;12.68;7.60;;;;;;;1.94;100.00;102195.53;5408931;26;20006;-71
2024/04/22 03:52:11;;;;;;;13.57;7.95;;;;;;;1.94;100.00;102200.66;5440520;26;20025;-70
2024/04/22 03:54:37;;;;;;;17.30;8.02;;;;;;;1.93;100.00;102199.81;5411025;26;20007;-71
2024/04/22 03:57:03;;;;;;;13.45;8.02;;;;;;;1.93;100.00;102189.59;5436137;26;20010;-70
2024/04/22 03:59:29;;;;;;;18.80;9.30;;;;;;;2.00;100.00;102187.63;5437426;26;20019;-71
2024/04/22 04:01:55;;;;;;;19.15;9.63;;;;;;;1.99;100.00;102191.06;5433691;26;20019;-71
2024/04/22 04:04:21;;;;;;;15.98;8.52;;;;;;;2.00;100.00;102184.22;5382238;26;20007;-71
2024/04/22 04:06:47;;;;;;;13.70;8.23;;;;;;;2.00;100.00;102186.75;5437200;26;20450;-71
2024/04/22 04:09:13;;;;;;;12.93;8.35;;;;;;;2.01;100.00;102186.69;5437018;26;20022;-71
2024/04/22 04:11:39;;;;;;;15.32;9.32;;;;;;;2.05;100.00;102187.41;5403369;26;20015;-71
2024/04/22 04:14:09;;;;;;;14.55;8.35;;;;;;;2.07;100.00;102193.28;5433141;26;20348;-71
2024/04/22 04:16:35;;;;;;;15.98;8.88;;;;;;;2.08;100.00;102194.97;5438450;26;20006;-71
2024/04/22 04:19:02;;;;;;;17.50;9.05;;;;;;;2.07;100.00;102189.03;5405063;26;20017;-71
2024/04/22 04:21:28;;;;;;;15.15;8.98;;;;;;;2.10;100.00;102188.88;5404936;26;20018;-71
2024/04/22 04:23:54;;;;;;;16.92;9.43;;;;;;;2.16;100.00;102192.88;5410438;26;20018;-71
2024/04/22 04:26:20;;;;;;;17.67;8.90;;;;;;;2.14;100.00;102192.94;5439332;26;19999;-71
2024/04/22 04:28:50;;;;;;;19.88;9.48;;;;;;;2.16;100.00;102192.06;5436382;26;20014;-71
2024/04/22 04:31:16;;;;;;;17.70;10.35;;;;;;;2.19;100.00;102192.75;5399518;26;20051;-71
2024/04/22 04:33:42;;;;;;;18.40;10.10;;;;;;;2.24;100.00;102192.53;5436158;26;20019;-71
2024/04/22 04:36:09;;;;;;;18.92;10.23;;;;;;;2.23;100.00;102190.91;5440403;26;20019;-71
2024/04/22 04:38:36;;;;;;;18.27;10.15;;;;;;;2.25;100.00;102189.94;5439254;26;20471;-71
2024/04/22 04:41:03;;;;;;;21.00;10.27;;;;;;;2.27;100.00;102192.41;5437849;26;20066;-71
2024/04/22 04:43:31;;;;;;;21.88;10.93;;;;;;;2.27;100.00;102188.13;5402714;26;20011;-71
2024/04/22 04:45:56;;;;;;;19.67;10.85;;;;;;;2.29;100.00;102196.56;5402803;26;20084;-71
2024/04/22 04:48:23;;;;;;;19.63;10.93;;;;;;;2.29;100.00;102188.88;5441228;26;20003;-71
2024/04/22 04:50:50;;;;;;;19.20;11.15;;;;;;;2.38;100.00;102195.34;5404928;26;19999;-71
2024/04/22 04:53:17;;;;;;;18.75;10.70;;;;;;;2.38;100.00;102191.94;5436897;26;20087;-71
2024/04/22 04:55:47;;;;;;;19.90;9.85;;;;;;;2.39;100.00;102191.03;5438308;26;20411;-71
2024/04/22 04:58:13;;;;;;;17.40;10.65;;;;;;;2.40;100.00;102188.41;5414874;26;20018;-71
2024/04/22 05:00:39;;;;;;;15.80;9.68;;;;;;;2.42;100.00;102190.91;5439674;26;20465;-71
2024/04/22 05:03:05;;;;;;;16.90;9.65;;;;;;;2.44;100.00;102191.66;5411813;26;20006;-71
2024/04/22 05:05:31;;;;;;;15.82;9.93;;;;;;;2.46;100.00;102195.00;5437060;26;20480;-71
2024/04/22 05:07:57;;;;;;;17.92;9.73;;;;;;;2.47;100.00;102184.69;5411991;26;20007;-71
2024/04/22 05:10:23;;;;;;;17.35;10.00;;;;;;;2.49;100.00;102188.00;5432692;26;20101;-70
2024/04/22 05:12:49;;;;;;;18.02;9.98;;;;;;;2.56;100.00;102198.78;5407752;26;20577;-71
2024/04/22 05:15:15;;;;;;;20.38;10.82;;;;;;;2.57;100.00;102194.50;5435157;26;20010;-71
2024/04/22 05:17:42;;;;;;;19.55;10.57;;;;;;;2.60;100.00;102202.03;5397609;26;20077;-70
2024/04/22 05:20:09;;;;;;;22.33;9.85;;;;;;;2.64;100.00;102201.84;5431781;26;20487;-71
2024/04/22 05:22:35;;;;;;;15.23;9.43;;;;;;;2.66;100.00;102201.78;5412706;26;20052;-71
2024/04/22 05:25:01;;;;;;;16.33;10.02;;;;;;;2.67;100.00;102199.13;5438413;26;20036;-71
2024/04/22 05:27:27;;;;;;;15.43;9.65;;;;;;;2.70;100.00;102205.84;5439856;26;20010;-71
2024/04/22 05:29:53;;;;;;;16.92;9.95;;;;;;;2.75;100.00;102203.91;5406602;26;20051;-71
2024/04/22 05:32:19;;;;;;;17.20;9.65;;;;;;;2.83;100.00;102201.81;5406098;26;20015;-70
2024/04/22 05:37:31;;;;;;;17.50;9.95;;;;;;;2.96;100.00;102202.09;5434891;26;20077;-71
2024/04/22 05:39:57;;;;;;;18.20;9.60;;;;;;;2.99;100.00;102201.91;5398536;26;20007;-70
2024/04/22 05:42:23;;;;;;;17.70;9.88;;;;;;;3.06;100.00;102202.47;5440241;26;20003;-71
2024/04/22 05:44:48;;;;;;;18.98;9.95;;;;;;;3.18;100.00;102201.88;5432757;26;20448;-70
2024/04/22 05:47:14;;;;;;;14.57;9.50;;;;;;;3.20;100.00;102200.09;5409487;26;20555;-71
2024/04/22 05:49:40;;;;;;;18.95;9.52;;;;;;;3.25;100.00;102200.69;5435617;26;19999;-71
2024/04/22 05:52:06;;;;;;;16.25;9.75;;;;;;;3.36;100.00;102201.91;5444956;26;20021;-71
2024/04/22 05:54:33;;;;;;;20.00;10.48;;;;;;;3.36;100.00;102205.28;5435782;26;20022;-71
2024/04/22 05:56:59;;;;;;;16.70;9.52;;;;;;;3.40;100.00;102198.28;5433343;26;20007;-70
2024/04/22 05:59:25;;;;;;;18.23;9.98;;;;;;;3.44;100.00;102186.97;5408433;26;20065;-71
2024/04/22 06:01:51;;;;;;;16.40;9.10;;;;;;;3.46;100.00;102198.78;5401548;26;20087;-71
2024/04/22 06:04:17;;;;;;;19.85;11.73;;;;;;;3.49;100.00;102196.09;5437258;26;20019;-71
2024/04/22 06:06:44;;;;;;;19.35;10.65;;;;;;;3.64;100.00;102196.25;5434788;26;20013;-71
2024/04/22 06:09:10;;;;;;;18.67;9.63;;;;;;;3.95;100.00;102182.66;5439232;26;20011;-71
2024/04/22 06:11:37;;;;;;;18.80;9.90;;;;;;;4.20;100.00;102191.66;5410648;26;20021;-72
2024/04/22 06:14:03;;;;;;;18.95;9.75;;;;;;;4.51;100.00;102190.88;5374893;26;20007;-71
2024/04/22 06:16:29;;;;;;;15.95;9.50;;;;;;;4.68;100.00;102193.34;5407648;26;20014;-70
2024/04/22 06:18:55;;;;;;;13.02;9.30;;;;;;;4.71;100.00;102192.38;5428648;26;20021;-73
2024/04/22 06:21:22;;;;;;;15.25;8.93;;;;;;;4.70;100.00;102190.72;5399912;26;20010;-71
2024/04/22 06:23:49;;;;;;;16.95;9.50;;;;;;;4.71;100.00;102199.22;5408737;26;20039;-71
2024/04/22 06:26:15;;;;;;;18.08;10.45;;;;;;;4.58;100.00;102201.66;5439454;26;20021;-71
2024/04/22 06:28:41;;;;;;;17.02;10.00;;;;;;;4.53;100.00;102191.63;5430798;26;20010;-71
2024/04/22 06:31:07;;;;;;;18.02;9.85;;;;;;;4.52;100.00;102192.53;5439516;26;20011;-71
2024/04/22 06:33:36;;;;;;;14.70;9.30;;;;;;;4.52;100.00;102189.97;5405651;26;20025;-70
2024/04/22 06:36:02;;;;;;;18.67;10.02;;;;;;;4.55;100.00;102194.94;5377535;26;20419;-71
2024/04/22 06:38:30;;;;;;;14.77;9.05;;;;;;;4.68;100.00;102198.50;5433008;26;20007;-71
2024/04/22 06:40:56;;;;;;;16.42;9.68;;;;;;;4.67;100.00;102186.56;5408449;26;20010;-71
2024/04/22 06:43:22;;;;;;;20.02;10.02;;;;;;;4.77;100.00;102186.88;5409553;26;20020;-71
2024/04/22 06:45:49;;;;;;;16.35;9.80;;;;;;;4.85;100.00;102187.28;5409507;26;20034;-71
2024/04/22 06:48:16;;;;;;;35.50;16.73;;;;;;;4.95;100.00;102179.88;5409286;26;20770;-71
2024/04/22 06:50:44;;;;;;;22.65;12.68;;;;;;;5.08;100.00;102180.03;5436034;26;20007;-72
2024/04/22 06:53:10;;;;;;;21.55;10.15;;;;;;;5.20;100.00;102183.69;5436171;26;20381;-71
2024/04/22 06:55:36;;;;;;;15.13;8.88;;;;;;;5.26;100.00;102183.31;5406612;26;20018;-71
2024/04/22 06:58:03;;;;;;;17.55;9.20;;;;;;;5.30;100.00;102176.25;5405027;26;20410;-72
2024/04/22 07:00:29;;;;;;;19.83;9.15;;;;;;;5.60;100.00;102176.22;5435305;26;20094;-71
2024/04/22 07:02:55;;;;;;;15.15;9.05;;;;;;;5.70;100.00;102179.09;5439824;26;20011;-71
2024/04/22 07:05:21;;;;;;;18.48;10.38;;;;;;;6.03;99.43;102179.69;5396227;26;20426;-71
2024/04/22 07:07:48;;;;;;;17.67;9.30;;;;;;;6.52;96.23;102175.03;5406867;26;20006;-73
2024/04/22 07:10:14;;;;;;;16.80;9.60;;;;;;;6.86;93.97;102175.47;5436674;26;20011;-71
2024/04/22 07:12:43;;;;;;;14.00;8.43;;;;;;;7.31;92.00;102166.50;5437738;26;20047;-71
2024/04/22 07:15:10;;;;;;;16.38;9.13;;;;;;;7.79;86.43;102173.63;5435638;26;20040;-71
2024/04/22 07:17:36;;;;;;;14.48;8.10;;;;;;;8.17;82.00;102170.16;5407518;26;20030;-71
2024/04/22 07:20:04;;;;;;;14.88;8.68;;;;;;;8.42;79.18;102160.72;5438293;26;20349;-71
2024/04/22 07:22:32;;;;;;;16.77;8.00;;;;;;;8.49;79.35;102169.69;5427787;26;20014;-71
2024/04/22 07:24:59;;;;;;;11.23;7.20;;;;;;;8.57;76.56;102160.47;5435984;26;20007;-72
2024/04/22 07:27:25;;;;;;;12.25;8.13;;;;;;;8.60;77.42;102164.56;5436103;26;20011;-71
2024/04/22 07:29:51;;;;;;;12.50;7.68;;;;;;;8.85;77.67;102160.22;5437188;26;20075;-72
2024/04/22 07:32:18;;;;;;;13.30;7.63;;;;;;;9.33;74.30;102158.38;5442438;26;20003;-71
2024/04/22 07:34:44;;;;;;;15.00;7.70;;;;;;;9.49;71.15;102162.41;5441106;26;20403;-72
2024/04/22 07:37:38;;;;;;;14.00;7.75;;;;;;;9.94;69.15;102157.25;5442062;26;20079;-72
2024/04/22 07:40:10;;;;;;;12.40;7.28;;;;;;;10.13;67.56;102161.81;5432529;26;20026;-72
2024/04/22 07:42:36;;;;;;;14.88;7.25;;;;;;;10.12;67.09;102155.00;5406163;26;20419;-72
2024/04/22 07:45:02;;;;;;;15.38;7.90;;;;;;;9.62;68.41;102160.53;5411508;26;20006;-72
2024/04/22 07:47:28;;;;;;;13.07;7.88;;;;;;;9.35;67.90;102164.25;5438066;26;20022;-72
2024/04/22 07:49:54;;;;;;;11.43;7.35;;;;;;;9.27;67.58;102153.66;5442598;26;20019;-72
2024/04/22 07:52:20;;;;;;;15.23;8.15;;;;;;;9.54;64.79;102157.69;5406934;26;20019;-72
2024/04/22 07:54:46;;;;;;;15.75;9.40;;;;;;;9.18;67.69;102153.53;5441240;26;20009;-72
2024/04/22 07:57:13;;;;;;;13.90;7.80;;;;;;;9.35;66.49;102163.44;5409458;26;20076;-72
2024/04/22 07:59:39;;;;;;;12.88;8.00;;;;;;;9.49;66.58;102157.22;5439802;26;20053;-72
2024/04/22 08:02:05;;;;;;;15.15;7.55;;;;;;;9.73;64.12;102160.53;5436345;26;20015;-73
2024/04/22 08:04:32;;;;;;;21.23;11.15;;;;;;;9.78;63.72;102167.97;5401788;26;20657;-72
2024/04/22 08:07:04;;;;;;;24.95;13.70;;;;;;;9.93;62.56;102161.59;5437493;26;20446;-72
2024/04/22 08:09:30;;;;;;;22.13;12.30;;;;;;;10.27;62.57;102161.56;5404304;26;20007;-72
2024/04/22 08:11:57;;;;;;;16.60;10.27;;;;;;;10.41;62.87;102159.69;5436303;26;20699;-72
2024/04/22 08:14:23;;;;;;;12.90;7.53;;;;;;;10.35;62.90;102160.19;5407301;26;20019;-72
2024/04/22 08:16:50;;;;;;;31.77;15.50;;;;;;;10.19;60.89;102165.69;5429394;26;20025;-72
2024/04/22 08:19:15;;;;;;;16.70;8.57;;;;;;;10.04;62.03;102157.34;5439682;26;20021;-72
2024/04/22 08:21:41;;;;;;;28.67;11.70;;;;;;;9.75;62.41;102171.59;5395763;26;20011;-73
2024/04/22 08:24:08;;;;;;;14.35;7.35;;;;;;;9.56;61.15;102171.34;5401782;26;19995;-72
2024/04/22 08:26:33;;;;;;;12.52;6.88;;;;;;;9.48;62.71;102166.75;5404581;26;20021;-72
2024/04/22 08:28:59;;;;;;;18.60;7.60;;;;;;;9.23;63.50;102170.38;5441392;26;20474;-72
2024/04/22 08:31:25;;;;;;;14.98;6.82;;;;;;;9.41;63.51;102170.75;5402722;26;20007;-72
2024/04/22 08:33:51;;;;;;;15.25;6.22;;;;;;;9.54;63.70;102170.66;5440312;26;20007;-73
2024/04/22 08:36:24;;;;;;;14.88;5.75;;;;;;;9.53;65.97;102171.59;5434815;26;20006;-72
2024/04/22 08:38:50;;;;;;;14.20;5.65;;;;;;;9.23;64.53;102175.53;5439340;26;20341;-73
2024/04/22 08:41:18;;;;;;;10.00;6.13;;;;;;;8.92;65.19;102169.19;5436843;26;20080;-72
2024/04/22 08:43:47;;;;;;;8.98;5.03;;;;;;;8.95;65.45;102171.56;5434542;26;20003;-72
2024/04/22 08:46:14;;;;;;;11.18;5.68;;;;;;;9.13;67.23;102169.38;5411331;26;20660;-73
2024/04/22 08:48:40;;;;;;;9.38;5.57;;;;;;;9.15;65.44;102175.25;5441757;26;20051;-72
2024/04/22 08:51:11;;;;;;;11.48;6.15;;;;;;;9.43;65.37;102162.88;5441838;26;20003;-73
2024/04/22 08:53:37;;;;;;;10.20;5.13;;;;;;;9.90;65.76;102166.19;5434573;26;20055;-72
2024/04/22 08:56:03;;;;;;;9.98;5.20;;;;;;;9.75;62.21;102168.19;5439154;26;20003;-72
2024/04/22 08:58:30;;;;;;;11.13;5.25;;;;;;;9.48;62.99;102164.16;5438155;26;20019;-72
2024/04/22 09:00:57;;;;;;;8.93;5.22;;;;;;;9.20;63.25;102164.59;5440115;26;20367;-72
2024/04/22 09:03:23;;;;;;;13.30;5.90;;;;;;;9.11;62.84;102161.72;5431895;26;20022;-73
2024/04/22 09:05:51;;;;;;;11.63;5.70;;;;;;;9.42;63.81;102156.88;5398583;26;20069;-73
2024/04/22 09:08:18;;;;;;;15.20;5.20;;;;;;;9.71;61.88;102152.06;5405073;26;20030;-72
2024/04/22 09:10:44;;;;;;;10.02;4.95;;;;;;;10.10;61.29;102151.72;5433698;26;20030;-73
2024/04/22 09:13:10;;;;;;;10.00;4.60;;;;;;;10.49;60.23;102144.31;5436959;26;20033;-72
2024/04/22 09:15:36;;;;;;;11.15;5.18;;;;;;;10.83;59.05;102142.44;5404657;26;20014;-72
2024/04/22 09:18:02;;;;;;;10.18;5.30;;;;;;;10.94;57.49;102138.16;5439425;26;20001;-72
2024/04/22 09:20:33;;;;;;;10.45;5.28;;;;;;;11.26;53.64;102132.88;5439154;26;20039;-72
2024/04/22 09:22:59;;;;;;;12.00;4.90;;;;;;;11.53;53.98;102131.50;5439877;26;20010;-72
2024/04/22 09:25:26;;;;;;;8.15;4.75;;;;;;;11.67;53.02;102125.97;5441657;26;20476;-72
2024/04/22 09:27:54;;;;;;;7.97;4.20;;;;;;;11.98;55.38;102132.00;5430978;26;20008;-72
2024/04/22 09:30:21;;;;;;;8.02;4.53;;;;;;;11.99;53.49;102138.03;5396409;26;20017;-72
2024/04/22 09:32:48;;;;;;;8.93;3.80;;;;;;;11.81;50.83;102127.38;5434999;26;20011;-72
2024/04/22 09:35:16;;;;;;;13.35;4.88;;;;;;;11.78;53.10;102131.09;5435324;26;20079;-72
2024/04/22 09:37:47;;;;;;;7.15;4.20;;;;;;;11.46;50.20;102128.63;5409402;26;20054;-72
2024/04/22 09:40:14;;;;;;;10.70;4.63;;;;;;;11.26;53.04;102138.06;5434059;26;20003;-73
2024/04/22 09:42:45;;;;;;;13.55;4.47;;;;;;;10.94;51.39;102135.56;5406812;26;20083;-72
2024/04/22 09:45:13;;;;;;;9.80;4.57;;;;;;;10.65;52.93;102136.97;5435055;26;20006;-72
2024/04/22 09:47:40;;;;;;;8.60;4.07;;;;;;;10.71;54.96;102136.47;5403767;26;20010;-72
2024/04/22 09:50:08;;;;;;;9.52;3.88;;;;;;;10.65;54.49;102131.78;5406624;26;20605;-72
2024/04/22 09:52:34;;;;;;;10.70;3.90;;;;;;;10.70;53.73;102129.66;5441295;26;21710;-72
2024/04/22 09:55:02;;;;;;;5.50;2.90;;;;;;;10.66;53.53;102127.41;5433484;26;20021;-72
2024/04/22 09:57:30;;;;;;;4.75;2.85;;;;;;;10.87;50.94;102122.28;5403950;26;20026;-72
2024/04/22 10:00:00;;;;;;;6.40;3.42;;;;;;;10.79;50.34;102129.84;5436045;26;20365;-72
2024/04/22 10:02:26;;;;;;;6.80;2.65;;;;;;;10.41;50.14;102129.38;5409163;26;20033;-72
2024/04/22 10:04:56;;;;;;;5.15;2.20;;;;;;;10.40;50.14;102132.13;5439151;26;20383;-72
2024/04/22 10:07:22;;;;;;;6.50;3.22;;;;;;;10.23;52.05;102126.47;5410122;26;20084;-72
2024/04/22 10:09:49;;;;;;;5.03;2.60;;;;;;;10.54;53.13;102124.03;5408808;26;20007;-72
2024/04/22 10:12:24;;;;;;;6.78;3.00;;;;;;;10.40;51.74;102117.38;5401984;26;20022;-72
2024/04/22 10:14:50;;;;;;;6.35;3.10;;;;;;;10.48;51.86;102121.94;5440244;26;20014;-72
2024/04/22 10:17:18;;;;;;;13.32;4.88;;;;;;;10.42;51.47;102112.88;5412500;26;20026;-73
2024/04/22 10:19:45;;;;;;;7.68;3.30;;;;;;;10.47;51.93;102108.16;5403288;26;20010;-73
2024/04/22 10:22:13;;;;;;;5.32;2.78;;;;;;;10.49;51.69;102108.88;5435902;26;20011;-73
2024/04/22 10:24:42;;;;;;;6.10;2.90;;;;;;;10.63;50.87;102107.75;5400311;26;20011;-72
2024/04/22 10:27:10;;;;;;;6.38;2.63;;;;;;;10.28;50.82;102106.19;5373912;26;20795;-73
2024/04/22 10:29:37;;;;;;;6.80;4.13;;;;;;;10.20;51.27;102102.56;5440847;26;20542;-72
2024/04/22 10:32:05;;;;;;;5.47;3.17;;;;;;;10.11;52.26;102099.75;5399324;26;20011;-72
2024/04/22 10:34:31;;;;;;;5.40;3.25;;;;;;;10.19;53.46;102103.47;5433889;26;20002;-72
2024/04/22 10:36:57;;;;;;;6.95;3.00;;;;;;;10.10;54.13;102099.88;5432201;26;20008;-72
2024/04/22 10:39:23;;;;;;;4.20;2.75;;;;;;;9.63;53.95;102105.22;5439490;26;20021;-72
2024/04/22 10:41:49;;;;;;;8.75;2.90;;;;;;;9.64;54.47;102106.84;5403627;26;20071;-72
2024/04/22 10:44:16;;;;;;;5.22;3.10;;;;;;;9.66;55.25;102106.72;5409463;26;20014;-72
2024/04/22 10:46:42;;;;;;;9.18;4.63;;;;;;;9.41;55.10;102102.63;5433888;26;20534;-73
2024/04/22 10:49:09;;;;;;;6.53;3.20;;;;;;;9.21;57.29;102102.38;5404520;26;20019;-72
2024/04/22 10:51:35;;;;;;;4.82;2.65;;;;;;;9.26;59.45;102113.19;5440210;26;20010;-72
2024/04/22 10:54:01;;;;;;;5.20;3.03;;;;;;;9.09;59.10;102103.28;5440239;26;20007;-72
2024/04/22 10:56:27;;;;;;;3.75;2.70;;;;;;;9.32;62.35;102104.97;5432462;26;20014;-72
2024/04/22 10:58:53;;;;;;;7.03;2.63;;;;;;;8.91;63.05;102103.72;5433132;26;20056;-72
2024/04/22 11:01:20;;;;;;;4.63;2.80;;;;;;;8.93;63.99;102096.66;5434275;26;20035;-73
2024/04/22 11:03:47;;;;;;;6.65;2.55;;;;;;;8.96;64.15;102091.22;5400054;26;20019;-72
2024/04/22 11:06:13;;;;;;;9.10;2.53;;;;;;;9.16;65.19;102087.16;5439248;26;20068;-72
2024/04/22 11:08:41;;;;;;;5.75;2.80;;;;;;;9.35;62.50;102089.19;5435598;26;20075;-72
2024/04/22 11:11:08;;;;;;;7.22;3.47;;;;;;;9.30;61.91;102086.13;5400753;26;20141;-72
2024/04/22 11:13:36;;;;;;;5.00;3.08;;;;;;;9.68;64.04;102076.34;5406654;26;20118;-72
2024/04/22 11:16:06;;;;;;;6.30;3.08;;;;;;;9.88;62.04;102075.63;5433293;26;20773;-73
2024/04/22 11:18:32;;;;;;;5.93;2.63;;;;;;;9.97;59.95;102065.50;5438190;26;20007;-72
2024/04/22 11:20:58;;;;;;;6.13;2.30;;;;;;;9.92;56.28;102074.44;5398903;26;20013;-72
2024/04/22 11:23:24;;;;;;;5.57;2.80;;;;;;;9.98;56.06;102069.72;5406358;26;20022;-72
2024/04/22 11:25:50;;;;;;;6.93;2.72;;;;;;;10.22;55.43;102061.78;5438073;26;20526;-72
2024/04/22 11:28:16;;;;;;;5.40;2.40;;;;;;;10.28;54.33;102056.94;5436381;26;20003;-72